createdAt,value
2022-09-01T00:01:43.411Z,41.03
2022-09-01T00:06:46.192Z,41.41
2022-09-01T00:11:50.794Z,41.81
2022-09-01T00:16:55.074Z,42.04
2022-09-01T00:21:57.758Z,42.40
2022-09-01T00:27:00.481Z,42.57
2022-09-01T00:32:04.962Z,42.51
2022-09-01T00:37:07.728Z,42.83
2022-09-01T00:42:10.630Z,43.01
2022-09-01T00:47:14.875Z,43.04
2022-09-01T00:52:20.668Z,43.03
2022-09-01T00:57:23.369Z,42.83
2022-09-01T01:02:27.471Z,42.84
2022-09-01T01:07:30.338Z,43.23
2022-09-01T01:12:33.245Z,43.58
2022-09-01T01:17:37.353Z,44.11
2022-09-01T01:23:02.378Z,44.18
2022-09-01T01:28:11.910Z,43.95
2022-09-01T01:33:14.722Z,43.53
2022-09-01T01:38:22.607Z,44.02
2022-09-01T01:43:29.013Z,43.75
2022-09-01T01:48:34.651Z,43.14
2022-09-01T01:53:37.470Z,43.35
2022-09-01T01:58:41.767Z,42.50
2022-09-01T02:03:46.785Z,42.44
2022-09-01T02:08:49.554Z,41.68
2022-09-01T02:13:56.231Z,41.47
2022-09-01T02:18:59.234Z,41.01
2022-09-01T02:24:03.605Z,40.89
2022-09-01T02:29:10.057Z,40.95
2022-09-01T02:34:18.015Z,41.10
2022-09-01T02:39:23.125Z,41.20
2022-09-01T02:44:27.789Z,41.34
2022-09-01T02:49:31.353Z,40.99
2022-09-01T02:54:34.094Z,41.07
2022-09-01T02:59:43.597Z,40.62
2022-09-01T03:04:49.816Z,40.70
2022-09-01T03:09:53.190Z,40.26
2022-09-01T03:14:57.294Z,40.62
2022-09-01T03:20:00.009Z,40.46
2022-09-01T03:25:02.715Z,40.54
2022-09-01T03:30:08.370Z,40.54
2022-09-01T03:35:11.140Z,40.78
2022-09-01T03:40:14.254Z,41.08
2022-09-01T03:45:20.363Z,40.92
2022-09-01T03:50:28.057Z,40.75
2022-09-01T03:55:33.943Z,40.51
2022-09-01T04:00:39.602Z,40.77
2022-09-01T04:05:44.199Z,40.59
2022-09-01T04:10:54.398Z,40.61
2022-09-01T04:15:59.380Z,40.83
2022-09-01T04:21:02.174Z,40.60
2022-09-01T04:26:09.448Z,40.47
2022-09-01T04:31:19.449Z,40.47
2022-09-01T04:36:25.940Z,40.71
2022-09-01T04:41:31.876Z,41.16
2022-09-01T04:46:42.208Z,41.16
2022-09-01T04:51:53.409Z,41.11
2022-09-01T04:56:57.000Z,41.21
2022-09-01T05:02:01.786Z,41.41
2022-09-01T05:07:05.687Z,41.45
2022-09-01T05:12:16.044Z,41.53
2022-09-01T05:17:23.328Z,41.37
2022-09-01T05:22:26.989Z,41.48
2022-09-01T05:27:34.849Z,41.65
2022-09-01T05:32:40.385Z,41.66
2022-09-01T05:37:44.739Z,41.59
2022-09-01T05:42:47.832Z,41.69
2022-09-01T05:47:52.451Z,41.46
2022-09-01T05:52:55.917Z,41.68
2022-09-01T05:57:58.863Z,41.74
2022-09-01T06:03:07.694Z,41.50
2022-09-01T06:08:14.903Z,41.71
2022-09-01T06:13:21.861Z,41.78
2022-09-01T06:18:29.989Z,41.73
2022-09-01T06:23:34.333Z,41.88
2022-09-01T06:28:41.005Z,41.80
2022-09-01T06:33:45.637Z,41.96
2022-09-01T06:38:50.064Z,41.70
2022-09-01T06:43:54.037Z,41.88
2022-09-01T06:48:59.077Z,41.78
2022-09-01T06:54:03.379Z,41.73
2022-09-01T06:59:10.050Z,41.61
2022-09-01T07:04:17.224Z,41.68
2022-09-01T07:20:24.436Z,43.31
2022-09-01T07:26:00.372Z,43.05
2022-09-01T07:37:15.151Z,44.20
2022-09-01T07:42:56.125Z,42.47
2022-09-01T07:47:53.404Z,44.11
2022-09-01T07:53:00.604Z,44.99
2022-09-01T07:58:03.557Z,44.67
2022-09-01T08:03:07.066Z,44.39
2022-09-01T08:08:18.865Z,44.00
2022-09-01T08:13:22.495Z,45.10
2022-09-01T08:18:25.675Z,43.87
2022-09-01T08:23:30.188Z,43.86
2022-09-01T08:28:33.610Z,43.60
2022-09-01T08:33:36.449Z,43.87
2022-09-01T08:38:40.907Z,43.81
2022-09-01T08:43:51.682Z,43.75
2022-09-01T08:54:45.523Z,43.04
2022-09-01T08:59:50.271Z,42.77
2022-09-01T09:05:22.419Z,42.51
2022-09-01T09:10:27.638Z,42.66
2022-09-01T09:15:34.993Z,42.64
2022-09-01T09:20:38.374Z,42.65
2022-09-01T09:25:44.823Z,42.34
2022-09-01T09:30:48.720Z,42.25
2022-09-01T09:35:51.486Z,42.11
2022-09-01T09:41:20.340Z,42.18
2022-09-01T09:46:27.853Z,42.00
2022-09-01T09:51:30.548Z,42.12
2022-09-01T09:56:36.063Z,42.11
2022-09-01T10:01:39.558Z,41.98
2022-09-01T10:06:46.810Z,41.98
2022-09-01T10:11:52.540Z,41.63
2022-09-01T10:16:58.158Z,41.74
2022-09-01T10:22:01.530Z,41.87
2022-09-01T10:27:17.810Z,41.66
2022-09-01T10:32:35.262Z,41.76
2022-09-01T10:37:41.426Z,41.88
2022-09-01T10:42:46.957Z,41.73
2022-09-01T10:47:49.727Z,41.58
2022-09-01T10:53:04.956Z,41.61
2022-09-01T11:03:56.549Z,41.65
2022-09-01T11:09:01.151Z,41.53
2022-09-01T11:14:11.445Z,41.62
2022-09-01T11:19:34.456Z,41.47
2022-09-01T11:25:00.204Z,41.50
2022-09-01T11:30:10.149Z,41.62
2022-09-01T11:35:16.723Z,41.53
2022-09-01T11:40:21.518Z,41.52
2022-09-01T11:45:28.282Z,41.41
2022-09-01T11:50:32.126Z,41.78
2022-09-01T11:55:36.293Z,38.45
2022-09-01T12:00:41.292Z,38.70
2022-09-01T12:05:44.123Z,36.91
2022-09-01T12:10:47.100Z,35.53
2022-09-01T12:16:16.950Z,34.58
2022-09-01T12:21:20.672Z,35.16
2022-09-01T12:26:25.531Z,36.51
2022-09-01T12:31:29.575Z,36.54
2022-09-01T12:36:33.605Z,36.77
2022-09-01T12:41:38.974Z,37.05
2022-09-01T12:46:44.864Z,37.12
2022-09-01T12:51:48.722Z,37.44
2022-09-01T12:56:51.903Z,37.23
2022-09-01T13:01:56.064Z,37.67
2022-09-01T13:07:03.120Z,39.82
2022-09-01T13:12:14.117Z,40.76
2022-09-01T13:17:19.447Z,41.75
2022-09-01T13:22:22.272Z,42.59
2022-09-01T13:27:24.958Z,42.61
2022-09-01T13:32:29.197Z,42.63
2022-09-01T13:37:32.008Z,41.58
2022-09-01T13:42:34.798Z,39.58
2022-09-01T13:48:15.265Z,39.79
2022-09-01T13:53:02.024Z,39.97
2022-09-01T13:58:04.906Z,39.44
2022-09-01T14:03:11.097Z,38.14
2022-09-01T14:08:14.530Z,37.66
2022-09-01T14:13:17.292Z,37.24
2022-09-01T14:18:21.790Z,37.22
2022-09-01T14:23:25.034Z,37.05
2022-09-01T14:28:27.735Z,36.42
2022-09-01T14:33:32.303Z,36.63
2022-09-01T14:38:35.143Z,37.01
2022-09-01T14:43:38.675Z,37.34
2022-09-01T14:48:42.871Z,37.34
2022-09-01T14:53:45.719Z,37.21
2022-09-01T14:58:48.730Z,37.20
2022-09-01T15:03:52.852Z,37.21
2022-09-01T15:08:55.647Z,37.38
2022-09-01T15:13:58.752Z,37.14
2022-09-01T15:19:02.761Z,37.10
2022-09-01T15:24:09.020Z,37.42
2022-09-01T15:29:13.125Z,37.05
2022-09-01T15:34:18.187Z,37.45
2022-09-01T15:39:21.296Z,37.54
2022-09-01T15:44:23.995Z,37.65
2022-09-01T15:49:28.140Z,37.11
2022-09-01T15:54:30.947Z,37.09
2022-09-01T15:59:34.134Z,37.04
2022-09-01T16:04:39.999Z,37.58
2022-09-01T16:09:42.740Z,38.08
2022-09-01T16:14:45.573Z,37.45
2022-09-01T16:19:53.450Z,37.36
2022-09-01T16:24:57.863Z,37.52
2022-09-01T16:30:03.203Z,36.91
2022-09-01T16:35:08.435Z,36.90
2022-09-01T16:40:17.964Z,36.09
2022-09-01T16:45:26.989Z,36.33
2022-09-01T16:50:38.129Z,35.82
2022-09-01T16:55:48.191Z,35.71
2022-09-01T17:00:57.722Z,35.99
2022-09-01T17:06:11.829Z,35.89
2022-09-01T17:11:19.156Z,35.92
2022-09-01T17:16:24.015Z,36.07
2022-09-01T17:21:33.064Z,36.16
2022-09-01T17:26:40.194Z,35.90
2022-09-01T17:31:49.193Z,35.98
2022-09-01T17:36:56.034Z,35.81
2022-09-01T17:42:00.499Z,35.93
2022-09-01T17:47:08.313Z,35.76
2022-09-01T17:52:16.062Z,36.10
2022-09-01T17:57:22.037Z,36.20
2022-09-01T18:02:37.282Z,35.99
2022-09-01T18:07:50.921Z,35.97
2022-09-01T18:13:01.793Z,36.06
2022-09-01T18:18:22.527Z,36.32
2022-09-01T18:23:27.218Z,36.25
2022-09-01T18:28:29.909Z,35.96
2022-09-01T18:33:36.692Z,35.95
2022-09-01T18:38:45.956Z,36.52
2022-09-01T18:43:50.693Z,36.21
2022-09-01T18:48:59.866Z,36.46
2022-09-01T18:54:06.114Z,36.68
2022-09-01T18:59:28.235Z,36.55
2022-09-01T19:04:41.103Z,36.79
2022-09-01T19:09:52.156Z,36.27
2022-09-01T19:14:58.849Z,36.56
2022-09-01T19:20:04.244Z,36.74
2022-09-01T19:25:32.979Z,36.71
2022-09-01T19:30:36.362Z,36.87
2022-09-01T19:35:39.091Z,36.84
2022-09-01T19:40:43.603Z,37.27
2022-09-01T19:45:53.306Z,37.12
2022-09-01T19:50:57.115Z,36.97
2022-09-01T19:56:04.189Z,37.01
2022-09-01T20:01:06.988Z,37.21
2022-09-01T20:06:10.844Z,37.41
2022-09-01T20:11:18.795Z,37.37
2022-09-01T20:16:25.597Z,37.28
2022-09-01T20:21:28.361Z,37.40
2022-09-01T20:26:36.074Z,37.47
2022-09-01T20:31:40.625Z,37.47
2022-09-01T20:36:45.731Z,37.38
2022-09-01T20:41:51.957Z,37.52
2022-09-01T20:46:54.635Z,37.47
2022-09-01T20:52:00.546Z,37.62
2022-09-01T20:57:10.814Z,37.42
2022-09-01T21:02:31.181Z,37.49
2022-09-01T21:07:36.707Z,37.62
2022-09-01T21:12:44.401Z,37.48
2022-09-01T21:17:53.216Z,38.04
2022-09-01T21:23:01.222Z,37.93
2022-09-01T21:28:08.212Z,37.69
2022-09-01T21:33:10.957Z,37.54
2022-09-01T21:38:13.700Z,37.67
2022-09-01T21:43:19.350Z,37.73
2022-09-01T21:48:22.218Z,37.62
2022-09-01T21:53:31.381Z,37.68
2022-09-01T21:58:37.678Z,38.07
2022-09-01T22:03:40.552Z,38.26
2022-09-01T22:08:43.258Z,38.46
2022-09-01T22:13:47.242Z,38.46
2022-09-01T22:18:49.902Z,38.66
2022-09-01T22:23:52.781Z,38.91
2022-09-01T22:28:56.926Z,39.00
2022-09-01T22:33:59.657Z,39.20
2022-09-01T22:39:02.331Z,38.03
2022-09-01T22:44:06.483Z,38.58
2022-09-01T22:49:09.402Z,38.47
2022-09-01T22:54:12.684Z,38.70
2022-09-01T22:59:16.912Z,38.67
2022-09-01T23:04:19.765Z,38.61
2022-09-01T23:09:22.457Z,38.50
2022-09-01T23:14:26.666Z,38.86
2022-09-01T23:19:29.372Z,38.70
2022-09-01T23:24:32.086Z,38.91
2022-09-01T23:29:36.155Z,39.06
2022-09-01T23:34:39.612Z,39.06
2022-09-01T23:39:42.411Z,38.90
2022-09-01T23:44:46.538Z,39.07
2022-09-01T23:49:49.349Z,39.08
2022-09-01T23:54:52.221Z,39.34
2022-09-01T23:59:57.918Z,39.42
